Detalii statie RANDUNICA PREST ANDRID [00001984]

Toti senzorii

Date Temperatura solului [C]Precipitatii [mm]Voltaj baterie [mV]Leaf Wetness [Min]HC Air temperature [C]HC Relative humidity [%]Punctul de roua [C]
medieminmaxsumaultimatimpmedieminmaxmediemediemin
2019-04-19 19:00:00 15.2 15.1 15.4 0 7264 17.35 15.98 18.44 35.26 1.5 1.2
2019-04-19 20:00:00 15 14.8 15.2 0 6932 13.89 12.61 15.63 41.87 0.9 0.7
2019-04-19 21:00:00 14.7 14.5 14.9 0 6904 10.87 9.34 12.43 48.46 0.2 0
2019-04-19 22:00:00 14.3 14.1 14.6 0 6864 9.2 7.94 10.25 53.15 0 -0.2
2019-04-19 23:00:00 13.9 13.7 14.1 0 6844 7.15 5.65 8.25 57.91 -0.6 -1.2
2019-04-20 00:00:00 13.5 13.3 13.8 0 6854 5.53 4.8 6.79 62.64 -1 -1.4
2019-04-20 01:00:00 13 12.8 13.3 0 6826 4.66 4.01 5.26 66.03 -1.1 -1.6
2019-04-20 02:00:00 12.6 12.4 12.9 0 6826 3.54 2.59 4.36 70.51 -1.3 -1.8
2019-04-20 03:00:00 12.2 12 12.4 0 6826 2.16 1.19 3.36 74.25 -1.9 -2.4
2019-04-20 04:00:00 11.8 11.7 12 0 6816 2.62 1.63 3.61 72.07 -1.9 -2.3
2019-04-20 05:00:00 11.4 11.2 11.6 0 6826 2.66 1.65 3.39 71.64 -1.9 -2.4
2019-04-20 06:00:00 11.1 10.9 11.3 0 6816 1.46 -0.21 2.9 79.99 -1.6 -2.6
2019-04-20 07:00:00 10.7 10.6 10.9 0 6854 3.1 1.99 4.38 74.29 -1 -1.4
2019-04-20 08:00:00 10.4 10.3 10.6 0 6864 7.64 5.08 9.75 61.22 0.4 -0.5
2019-04-20 09:00:00 10.2 10.2 10.4 0 6884 11.29 9.87 12.7 56.08 2.6 1.5
2019-04-20 10:00:00 10.3 10.2 10.4 0 6992 13.69 12.23 15.38 50.04 3.2 2.4
2019-04-20 11:00:00 10.4 10.3 10.7 0 7274 16.87 15.96 18.5 41.28 3.3 2
2019-04-20 12:00:00 10.8 10.6 11.2 0 7284 19.15 17.74 19.86 33.79 2.5 1.5
2019-04-20 13:00:00 11.4 11.1 11.9 0 7274 19.88 19.4 20.39 33.08 2.9 1.9
2019-04-20 14:00:00 12.4 11.9 13 0 7274 20.3 20.01 20.72 31.18 2.5 1.9
2019-04-20 15:00:00 13.5 12.9 14 0 7264 20.5 19.29 21.17 32.2 3.1 2.2
2019-04-20 16:00:00 14.4 14 14.8 0 7274 20.73 19.85 21.36 31.6 3 1.8
2019-04-20 17:00:00 15.1 14.7 15.4 0 7274 20.16 19.48 20.91 30.54 2 1.5
2019-04-20 18:00:00 15.5 15.4 15.6 0 7264 19.87 19.42 20.46 31.34 2.1 0.9
2019-04-20 19:00:00 15.6 15.5 15.7 0 7246 18.39 16.84 20.11 33.1 1.5 1
2019-04-20 20:00:00 15.4 15.4 15.6 0 6932 14.1 11.96 16.34 42.51 1.3 0.4
2019-04-20 21:00:00 15.1 15 15.4 0 6914 11.82 10.99 12.79 45.15 0.1 0
2019-04-20 22:00:00 14.7 14.5 14.9 0 6874 10.5 9.59 10.91 49.96 0.3 0
2019-04-20 23:00:00 14.3 14.1 14.6 0 6864 9.58 8.68 10.55 55.72 1 0.8
2019-04-21 00:00:00 13.9 13.8 14.2 0 6834 11.11 10.31 11.81 49.66 0.8 0.5
2019-04-21 01:00:00 13.6 13.5 13.8 0 6844 11.37 11.19 11.58 48.38 0.6 0.4
2019-04-21 02:00:00 13.2 13.1 13.5 0 6844 11.08 10.46 11.53 48.64 0.5 0.2
2019-04-21 03:00:00 13 12.9 13.2 0 6834 9.29 8.4 10.81 57.78 1.2 0.5
2019-04-21 04:00:00 12.8 12.7 13 0 6844 8.9 8.26 9.58 58.7 1 0.9
2019-04-21 05:00:00 12.5 12.3 12.6 0 6834 8.42 7.23 9.38 61.36 1.2 0.9
2019-04-21 06:00:00 12.3 12.2 12.5 0 6834 6.82 6.45 7.21 67.79 1.1 0.8
2019-04-21 07:00:00 12 11.9 12.3 0 6854 7.42 6.97 7.91 66.3 1.4 0.9
2019-04-21 08:00:00 11.8 11.6 12 0 6952 9.78 7.16 11.78 69.02 4.2 3.2
2019-04-21 09:00:00 11.7 11.6 11.8 0 7070 12.81 11.8 14.77 57.94 4.5 3.9
2019-04-21 10:00:00 11.7 11.7 11.9 0 7186 16.07 15.29 16.85 47.73 4.8 4.4
2019-04-21 11:00:00 11.9 11.9 12 0 7284 17.02 16.16 17.75 48.86 6 5.1
2019-04-21 12:00:00 12.1 11.9 12.4 0 7284 17.96 17.1 18.76 48.5 6.7 5.9
2019-04-21 13:00:00 12.7 12.3 13.1 0 7274 19.02 18.2 19.47 46.28 7 6.5
2019-04-21 14:00:00 13.6 13.1 14.2 0 7264 20.36 19.14 21.2 42.38 6.9 6.4
2019-04-21 15:00:00 14.6 14.3 15.1 0 7264 20.53 19.58 21.82 40.12 6.2 4.9